• Join FlightAware (Why Join?)
  • Login
  • US Flag 
01:36AM EDT


 

Airport Tracker/Info


-or-


 

Live Flight TrackerFlight Track Log ✈ CTL22 ✈ 21-May-2013 ✈ KAZO - KBKL

Flight Track Log - Related Links

Times and Time Zones

All times are in EDT time to prevent confusion due to time zone crossing. See the CTL22 flight status page for this flight to view local times or setup timezone preferences in your user account.

Time Position Orientation Groundspeed Altitude Reporting Facility
EDT Latitude Longitude Course Direction KTS MPH feet Rate Location/Type
08:17PM 42.1553 -85.3769 119° Southeast 141 162 4,200  Level Chicago Center
08:18PM 42.1400 -85.3253 112° Southeast 145 167 4,900 600 Climbing Chicago Center
08:19PM 42.1289 -85.2669 104° East 155 178 5,500 480 Climbing Chicago Center
08:20PM 42.1678 -85.1561 103° East  Level Estimated
08:20PM 42.1200 -85.2094 102° East 156 180 6,000  Level Chicago Center
08:21PM 42.1565 -85.0902 103° East  Level Estimated
08:21PM 42.1083 -85.1494 105° East 162 186 6,500  Level Chicago Center
08:22PM 42.0958 -85.0769 103° East 164 189 7,000 180 Climbing Chicago Center
08:23PM 42.0850 -85.0111 102° East 173 199 6,900  Descending Chicago Center
08:24PM 42.0744 -84.9422 102° East 184 212 7,000  Climbing Chicago Center
08:25PM 42.0653 -84.8736 100° East 185 213 7,000  Level Chicago Center
08:26PM 42.0631 -84.8028 92° East 189 217 7,000  Level Chicago Center
08:27PM 42.0617 -84.7308 91° East 191 220 7,000  Level Chicago Center
08:28PM 42.0603 -84.6433 91° East 194 223 7,100  Climbing Chicago Center
08:29PM 42.0586 -84.5733 92° East 190 219 7,000 -60 Descending Chicago Center
08:30PM 42.0617 -84.4975 87° East 192 221 7,000  Level Chicago Center
08:31PM 42.0639 -84.4261 88° East 193 222 7,100  Climbing Chicago Center
08:32PM 42.0642 -84.3539 90° East 193 222 7,000 -60 Descending Chicago Center
08:33PM 42.0686 -84.2842 85° East 189 217 7,000 -60 Level Chicago Center
08:34PM 42.0753 -84.2014 84° East 190 219 6,900  Descending Chicago Center
08:35PM 42.0767 -84.1781 85° East 193 222 7,000 60 Climbing Cleveland Center
08:36PM 42.0869 -84.1144 78° East 189 217 7,000  Level Cleveland Center
08:37PM 42.0889 -84.0500 88° East 187 215 7,000  Level Cleveland Center
08:38PM 42.0764 -83.9822 104° East 177 204 7,000  Level Cleveland Center
08:39PM 42.0614 -83.9256 110° East 176 203 7,100  Climbing Cleveland Center
08:40PM 42.0425 -83.8519 109° East 177 204 7,000  Descending Cleveland Center
08:41PM 42.0294 -83.7981 108° East 174 200 7,100  Climbing Cleveland Center
08:42PM 42.0128 -83.7244 107° East 176 203 7,000 -60 Descending Cleveland Center
08:43PM 41.9956 -83.6706 113° Southeast 178 205 7,000  Level Cleveland Center
08:44PM 41.9786 -83.6056 109° East 176 203 7,100  Climbing Cleveland Center
08:45PM 41.9633 -83.5489 110° East 180 207 7,000 -60 Descending Cleveland Center
08:46PM 41.9422 -83.4753 111° Southeast 184 212 7,000  Level Cleveland Center
08:47PM 41.9250 -83.4158 111° Southeast 185 213 7,100  Climbing Cleveland Center
08:48PM 41.9078 -83.3483 109° East 188 216 7,000 -60 Descending Cleveland Center
08:49PM 41.8944 -83.2947 108° East 180 207 7,000  Level Cleveland Center
08:50PM 41.8753 -83.2269 111° Southeast 183 211 7,000  Level Cleveland Center
08:51PM 41.8622 -83.1622 105° East 186 214 7,000  Level Cleveland Center
08:52PM 41.8428 -83.0917 110° East 182 209 7,000  Level Cleveland Center
08:53PM 41.8275 -83.0353 110° East 179 206 7,000  Level Cleveland Center
08:54PM 41.8081 -82.9650 110° East 181 208 7,000  Level Cleveland Center
08:55PM 41.7931 -82.8836 104° East 182 209 7,100  Climbing Cleveland Center
08:56PM 41.7775 -82.8219 109° East 182 209 7,000 -60 Descending Cleveland Center
08:57PM 41.7603 -82.7517 108° East 180 207 7,000 -240 Level Cleveland Center
08:58PM 41.7447 -82.6872 108° East 186 214 6,600 -900 Descending Cleveland Center
08:59PM 41.7275 -82.6003 105° East 223 257 5,200 -900 Descending Cleveland Center
09:00PM 41.7139 -82.5386 106° East 203 234 4,800 -600 Descending Cleveland Center
09:01PM 41.6986 -82.4575 104° East 201 231 4,100 -720 Descending Cleveland Center
09:02PM 41.6831 -82.3875 107° East 203 234 3,400 -600 Descending Cleveland Center
09:03PM 41.6714 -82.3261 104° East 191 220 3,000 -240 Descending Cleveland Center
09:04PM 41.6558 -82.2617 108° East 165 190 3,000  Level Cleveland Center
09:05PM 41.6400 -82.2003 109° East 171 197 3,000  Level Cleveland Center
09:06PM 41.6303 -82.1417 102° East 171 197 3,100 -240 Climbing Cleveland Center
09:07PM 41.6189 -82.0775 103° East 174 200 2,600 -480 Descending Cleveland Center
09:08PM 41.6008 -82.0019 108° East 194 223 2,100 -480 Descending Cleveland Center
09:09PM 41.5850 -81.9350 108° East 188 216 1,700 -240 Descending Cleveland Center
09:10PM 41.5731 -81.8822 107° East 169 194 1,700 -60 Level Cleveland Center
09:11PM 41.5531 -81.8206 113° Southeast 165 190 1,600 -60 Descending Cleveland Center
09:12PM 41.5431 -81.7706 105° East 158 182 1,600 -180 Level Cleveland Center
09:13PM 41.5314 -81.6900 101° East 131 151 1,200 -300 Descending Cleveland Center